7  °C
Temperature
-2  °C
  Dewpoint
   Humidity
Temp | Dewpoint | Humidity
19  km/h
Wind Speed
12  mph
Wind Speed
10  kts
Wind Speed
270°
Due West

Wind Speed
Partly Cloudy
Conditions
Pressure 1015.92 (hPa) - 30 (in)
Visibility 6.2 (mi) - 10.0 (km)

Current Conditions
LKLN
Location 6km (3.2mi)
Metar :LKLN 250900Z AUTO 27010KT 230V310 9999 FEW038 SCT100 07/M02 Q1016
Mon 25th March 10:00 am

Airport
  Metar Aviation API Data Provided by https://www.checkwx.com/ CSS/SVG/PHP scripts by weather34.com © 2015-2019